createdAt,value
2022-09-04T00:00:07.772Z,65
2022-09-04T00:15:02.250Z,65
2022-09-04T00:30:05.386Z,65
2022-09-04T00:45:02.350Z,65
2022-09-04T01:00:07.386Z,65
2022-09-04T01:15:04.107Z,65
2022-09-04T01:30:05.851Z,65
2022-09-04T01:45:03.991Z,65
2022-09-04T02:00:06.431Z,65
2022-09-04T02:15:04.894Z,65
2022-09-04T02:30:03.840Z,65
2022-09-04T02:45:03.240Z,65
2022-09-04T03:00:05.865Z,65
2022-09-04T03:15:03.301Z,65
2022-09-04T03:30:05.556Z,65
2022-09-04T03:45:03.482Z,65
2022-09-04T04:00:04.160Z,65
2022-09-04T04:15:03.120Z,65
2022-09-04T04:30:05.899Z,65
2022-09-04T04:45:03.871Z,65
2022-09-04T05:00:04.862Z,65
2022-09-04T05:15:03.208Z,65
2022-09-04T05:30:04.529Z,65
2022-09-04T05:45:02.616Z,65
2022-09-04T06:00:06.335Z,65
2022-09-04T06:15:04.591Z,66
2022-09-04T06:30:07.706Z,66
2022-09-04T06:45:03.514Z,67
2022-09-04T07:00:07.254Z,68
2022-09-04T07:15:04.516Z,68
2022-09-04T07:30:09.207Z,70
2022-09-04T07:45:03.431Z,70
2022-09-04T08:00:07.391Z,70
2022-09-04T08:15:03.838Z,70
2022-09-04T08:30:04.880Z,71
2022-09-04T08:45:03.893Z,71
2022-09-04T09:00:07.953Z,72
2022-09-04T09:15:02.729Z,72
2022-09-04T09:30:06.653Z,72
2022-09-04T09:45:04.891Z,72
2022-09-04T10:00:05.558Z,71
2022-09-04T10:15:02.873Z,71
2022-09-04T10:30:05.831Z,71
2022-09-04T10:45:03.575Z,71
2022-09-04T11:00:09.367Z,71
2022-09-04T11:15:02.250Z,70
2022-09-04T11:30:07.369Z,70
2022-09-04T11:45:02.569Z,69
2022-09-04T12:00:07.834Z,69
2022-09-04T12:15:08.848Z,68
2022-09-04T12:30:07.478Z,68
2022-09-04T12:45:02.670Z,67
2022-09-04T13:00:08.171Z,67
2022-09-04T13:15:03.685Z,67
2022-09-04T13:30:07.932Z,66
2022-09-04T13:45:04.896Z,66
2022-09-04T14:00:05.842Z,65
2022-09-04T14:15:03.129Z,65
2022-09-04T14:30:08.021Z,64
2022-09-04T14:45:02.924Z,64
2022-09-04T15:00:06.191Z,64
2022-09-04T15:15:03.490Z,63
2022-09-04T15:30:09.047Z,63
2022-09-04T15:45:04.530Z,63
2022-09-04T16:00:07.357Z,62
2022-09-04T16:15:03.888Z,62
2022-09-04T16:30:09.210Z,62
2022-09-04T16:45:04.039Z,62
2022-09-04T17:00:06.901Z,61
2022-09-04T17:15:03.234Z,61
2022-09-04T17:30:29.369Z,63
2022-09-04T17:45:02.932Z,63
2022-09-04T18:00:08.837Z,64
2022-09-04T18:15:34.889Z,64
2022-09-04T18:37:41.845Z,64
2022-09-04T18:51:01.168Z,65
2022-09-04T19:00:09.653Z,65
2022-09-04T19:15:03.986Z,65
2022-09-04T19:30:25.051Z,65
2022-09-04T19:46:24.546Z,65
2022-09-04T20:00:44.136Z,66
2022-09-04T20:15:03.356Z,66
2022-09-04T20:30:05.353Z,66
2022-09-04T21:03:27.733Z,66
2022-09-04T21:15:03.493Z,66
2022-09-04T21:30:07.125Z,66
2022-09-04T21:45:03.286Z,66
2022-09-04T22:02:51.219Z,66
2022-09-04T22:15:03.140Z,66
2022-09-04T22:30:07.150Z,66
2022-09-04T22:45:10.341Z,66
2022-09-04T23:00:06.119Z,66
2022-09-04T23:15:09.097Z,66
2022-09-04T23:30:05.770Z,66
2022-09-04T23:45:02.828Z,66
